Harbert, Michigan
Current Conditions -  °F | °C
As of 1:15 PM on Tuesday 21 Oct 2014 (Local Time) from KMGC Reporting Station
Overcast Overcast  
Wind Chill: 52°   Ceiling: 2000
Heat Index: 52°   Visibility: 10mi
Dew Point: 41°   Wind: 17mph
Humidity: 67%   Direction: 360°N
Pressure: 30.13"   Gusts: 22mph
Location:  41.87°N, 86.63°W
Report Text: KMGC 211715Z AUTO 36015G19KT 10SM BKN020 BKN028 OVC045 11/05 A3013 RMK AO2
Loading
Personal Weather Stations






























Interactive Weather Map
Tropical Storm Tracking
New forecast layout! Learn more

10-Day Weather Forecast

Advertisements
Track Severe Weather on mobile